Wec Goya — CQIE5 — position and weather

sailwx.info

Track history (hours):
 
Tides and Currents Weather Stations Pressure Air Temp Water Temp Dewpoint Dewpoint Depression Visibility Wind Speed Wind Dir Waves Ship Positions

Wec Goya

Last reported at 2017-Nov-24 14:56 UTC. Time now 2017-Nov-24 15:15 UTC.
Position N 43°33' W 005°41'.

Length 135 m; draft 6.3 m.

Type: Ship. MMSI: 255805937.

Date/timePositionNaut miles runAvg speedWind from/ knotsBaromVisibWave heightAir tempDewpointWater temp
2017-Nov-24 14:56N 43°33' W 005°41'0 0.0
2017-Nov-24 14:26N 43°33' W 005°41'0 0.0
2017-Nov-24 13:43N 43°33' W 005°41'0 0.0
2017-Nov-24 13:25N 43°33' W 005°41'0 0.0
2017-Nov-24 12:55N 43°33' W 005°41'0 0.0
2017-Nov-24 12:01N 43°33' W 005°41'0 0.0
2017-Nov-24 11:49N 43°33' W 005°41'0 0.0
2017-Nov-24 11:30N 43°33' W 005°41'0 0.0
2017-Nov-24 11:00N 43°33' W 005°41'0 0.0
2017-Nov-24 10:30N 43°33' W 005°41'0 0.0
2017-Nov-24 10:00N 43°33' W 005°41'0 0.0
2017-Nov-24 09:30N 43°33' W 005°41'0 0.0
2017-Nov-24 08:59N 43°33' W 005°41'0 0.0
2017-Nov-24 08:05N 43°33' W 005°41'0 0.0
2017-Nov-24 07:59N 43°33' W 005°41'0 0.0
2017-Nov-24 07:29N 43°33' W 005°41'0 0.0
2017-Nov-24 07:00N 43°33' W 005°41'0 0.7
2017-Nov-24 06:30N 43°34' W 005°41'3 5.9
2017-Nov-24 06:00N 43°37' W 005°40'612.6
2017-Nov-24 05:30N 43°41' W 005°46'714.2
2017-Nov-24 05:00N 43°44' W 005°55'714.3
2017-Nov-24 04:30N 43°45' W 006°05'714.7
2017-Nov-24 04:00N 43°46' W 006°15'814.6
2017-Nov-24 03:28N 43°46' W 006°26'2914.2
2017-Nov-24 01:28N 43°50' W 007°05'614.0
2017-Nov-24 01:00N 43°51' W 007°14'713.8
2017-Nov-24 00:30N 43°51' W 007°24'714.1
2017-Nov-24 00:00N 43°51' W 007°34'815.3
2017-Nov-23 23:30N 43°50' W 007°44'815.2
2017-Nov-23 23:00N 43°50' W 007°55'260 9.7
2017-Nov-22 20:07N 39°42' W 009°41'516.5
2017-Nov-22 19:49N 39°37' W 009°42'516.3
2017-Nov-22 19:31N 39°33' W 009°43'  
2017-Nov-19 20:01N 29°01' W 015°24'116.1
2017-Nov-19 19:57N 29°00' W 015°25'716.2
2017-Nov-19 19:30N 28°54' W 015°29'816.2
2017-Nov-19 19:00N 28°47' W 015°34'816.1
2017-Nov-19 18:30N 28°40' W 015°38'816.0
2017-Nov-19 18:00N 28°33' W 015°44'815.9
2017-Nov-19 17:30N 28°27' W 015°49'815.0
2017-Nov-19 17:00N 28°24' W 015°57'816.2
2017-Nov-19 16:30N 28°26' W 016°06'5 0.5
2017-Nov-19 06:18N 28°27' W 016°11'413.2
2017-Nov-19 05:59N 28°26' W 016°06'713.9
2017-Nov-19 05:30N 28°23' W 015°59'713.9
2017-Nov-19 05:00N 28°21' W 015°52'713.7
2017-Nov-19 04:30N 28°19' W 015°44'713.3
2017-Nov-19 04:00N 28°16' W 015°37'713.0
2017-Nov-19 03:30N 28°14' W 015°30'713.3
2017-Nov-19 03:00N 28°12' W 015°23'4 7.9
2017-Nov-19 02:30N 28°08' W 015°25'0 0.3
2017-Nov-19 01:58N 28°08' W 015°25'0 0.0
2017-Nov-19 01:25N 28°08' W 015°25'0 0.0
2017-Nov-19 00:52N 28°08' W 015°25'0 0.0
2017-Nov-19 00:19N 28°08' W 015°25'0 0.0
2017-Nov-18 23:58N 28°08' W 015°25'0 0.0
2017-Nov-18 23:27N 28°08' W 015°25'0 0.0
2017-Nov-18 22:54N 28°08' W 015°25'0 0.0
2017-Nov-18 22:21N 28°08' W 015°25'0 0.0
2017-Nov-18 22:00N 28°08' W 015°25'0 0.0
2017-Nov-18 21:30N 28°08' W 015°25'0 0.0
2017-Nov-18 20:56N 28°08' W 015°25'0 0.0
2017-Nov-18 20:23N 28°08' W 015°25'0 0.0
2017-Nov-18 19:50N 28°08' W 015°25'0 0.0
2017-Nov-18 19:29N 28°08' W 015°25'0 0.0
2017-Nov-18 18:58N 28°08' W 015°25'0 0.0
2017-Nov-18 18:25N 28°08' W 015°25'0 0.0
2017-Nov-18 17:52N 28°08' W 015°25'0 0.0
2017-Nov-18 17:19N 28°08' W 015°25'0 0.0
2017-Nov-18 16:58N 28°08' W 015°25'0 0.0
2017-Nov-18 16:27N 28°08' W 015°25'0 0.0
2017-Nov-18 15:54N 28°08' W 015°25'0 0.0
2017-Nov-18 15:21N 28°08' W 015°25'0 0.0
2017-Nov-18 15:00N 28°08' W 015°25'0 0.0
2017-Nov-18 14:30N 28°08' W 015°25'0 0.0
2017-Nov-18 13:56N 28°08' W 015°25'0 0.0
2017-Nov-18 13:23N 28°08' W 015°25'0 0.0
2017-Nov-18 12:50N 28°08' W 015°25'0 0.0
2017-Nov-18 12:29N 28°08' W 015°25'0 0.0
2017-Nov-18 11:58N 28°08' W 015°25'0 0.0
2017-Nov-18 11:25N 28°08' W 015°25'0 0.0
2017-Nov-18 10:52N 28°08' W 015°25'0 0.0
2017-Nov-18 10:19N 28°08' W 015°25'0 0.0
2017-Nov-18 09:58N 28°08' W 015°25'0 0.0
2017-Nov-18 09:24N 28°08' W 015°25'0 0.0
2017-Nov-18 08:54N 28°08' W 015°25'0 0.0
2017-Nov-18 08:30N 28°08' W 015°25'0 0.0
2017-Nov-18 08:00N 28°08' W 015°25'0 0.0
2017-Nov-18 07:29N 28°08' W 015°25'0 0.0
2017-Nov-18 06:56N 28°08' W 015°25'0 0.0
2017-Nov-18 06:23N 28°08' W 015°25'0 0.0
2017-Nov-18 05:59N 28°08' W 015°25'0 0.0
2017-Nov-18 05:29N 28°08' W 015°25'0 0.0
2017-Nov-18 04:58N 28°08' W 015°25'0 0.0
2017-Nov-18 04:25N 28°08' W 015°25'0 0.0
2017-Nov-18 03:49N 28°08' W 015°25'0 0.0
2017-Nov-18 03:28N 28°08' W 015°25'0 0.0
2017-Nov-18 03:01N 28°08' W 015°25'0 0.0
2017-Nov-18 02:27N 28°08' W 015°25'0 0.0
2017-Nov-18 01:54N 28°08' W 015°25'0 0.0
2017-Nov-18 01:30N 28°08' W 015°25'0 0.0
2017-Nov-18 01:00N 28°08' W 015°25'0 0.0
2017-Nov-18 00:29N 28°08' W 015°25'0 0.0
2017-Nov-17 23:56N 28°08' W 015°25'0 0.0
2017-Nov-17 23:20N 28°08' W 015°25'0 0.0
2017-Nov-17 22:59N 28°08' W 015°25'0 0.0
2017-Nov-17 22:29N 28°08' W 015°25'0 0.0
2017-Nov-17 21:58N 28°08' W 015°25'0 0.0
2017-Nov-17 21:25N 28°08' W 015°25'0 0.0
2017-Nov-17 20:52N 28°08' W 015°25'0 0.0
2017-Nov-17 20:28N 28°08' W 015°25'0 0.0
2017-Nov-17 20:00N 28°08' W 015°25'0 0.0
2017-Nov-17 19:27N 28°08' W 015°25'0 0.0
2017-Nov-17 18:54N 28°08' W 015°25'0 0.0
2017-Nov-17 18:30N 28°08' W 015°25'0 0.0
2017-Nov-17 18:00N 28°08' W 015°25'0 0.0
2017-Nov-17 17:29N 28°08' W 015°25'0 0.0
2017-Nov-17 16:56N 28°08' W 015°25'0 0.0
2017-Nov-17 16:23N 28°08' W 015°25'0 0.0
2017-Nov-17 15:59N 28°08' W 015°25'0 0.0
2017-Nov-17 15:29N 28°08' W 015°25'0 0.0
2017-Nov-17 14:55N 28°08' W 015°25'0 0.0
2017-Nov-17 14:25N 28°08' W 015°25'0 0.0
2017-Nov-17 13:49N 28°08' W 015°25'0 0.0
2017-Nov-17 13:28N 28°08' W 015°25'0 0.0
2017-Nov-17 13:01N 28°08' W 015°25'1 1.4
2017-Nov-17 12:30N 28°07' W 015°25'2 4.1
2017-Nov-17 12:00N 28°07' W 015°23'612.2
2017-Nov-17 11:30N 28°12' W 015°18'612.8
2017-Nov-17 11:00N 28°16' W 015°12'713.0
2017-Nov-17 10:30N 28°21' W 015°07'613.0
2017-Nov-17 10:00N 28°26' W 015°02'612.9
2017-Nov-17 09:30N 28°30' W 014°57'612.8
2017-Nov-17 09:00N 28°35' W 014°52'612.8
2017-Nov-17 08:30N 28°39' W 014°47'612.8
2017-Nov-17 08:00N 28°44' W 014°41'1112.5
2017-Nov-17 07:08N 28°51' W 014°32'211.8
2017-Nov-17 06:57N 28°52' W 014°31'511.1
2017-Nov-17 06:30N 28°56' W 014°26'511.0
2017-Nov-17 06:00N 28°60' W 014°22'711.0
2017-Nov-17 05:24N 29°05' W 014°17'611.0
2017-Nov-17 04:52N 29°09' W 014°12'411.0
2017-Nov-17 04:30N 29°12' W 014°09'610.9
2017-Nov-17 03:59N 29°16' W 014°05'710.8
2017-Nov-17 03:21N 29°21' W 013°59'710.8
2017-Nov-17 02:43N 29°25' W 013°53'810.9
2017-Nov-17 02:02N 29°31' W 013°47'010.9
2017-Nov-17 02:00N 29°31' W 013°47'  
Track history (hours):
 
Tides and Currents Weather Stations Pressure Air Temp Water Temp Dewpoint Dewpoint Depression Visibility Wind Speed Wind Dir Waves Ship Positions

Wec Goya

Last reported at 2017-Nov-24 14:56 UTC. Time now 2017-Nov-24 15:15 UTC.
Position N 43°33' W 005°41'.

Length 135 m; draft 6.3 m.

Type: Ship. MMSI: 255805937.

Date/timePositionNaut miles runAvg speedWind from/ knotsBaromVisibWave heightAir tempDewpointWater temp
2017-Nov-24 14:56N 43°33' W 005°41'0 0.0
2017-Nov-24 14:26N 43°33' W 005°41'0 0.0
2017-Nov-24 13:43N 43°33' W 005°41'0 0.0
2017-Nov-24 13:25N 43°33' W 005°41'0 0.0
2017-Nov-24 12:55N 43°33' W 005°41'0 0.0
2017-Nov-24 12:01N 43°33' W 005°41'0 0.0
2017-Nov-24 11:49N 43°33' W 005°41'0 0.0
2017-Nov-24 11:30N 43°33' W 005°41'0 0.0
2017-Nov-24 11:00N 43°33' W 005°41'0 0.0
2017-Nov-24 10:30N 43°33' W 005°41'0 0.0
2017-Nov-24 10:00N 43°33' W 005°41'0 0.0
2017-Nov-24 09:30N 43°33' W 005°41'0 0.0
2017-Nov-24 08:59N 43°33' W 005°41'0 0.0
2017-Nov-24 08:05N 43°33' W 005°41'0 0.0
2017-Nov-24 07:59N 43°33' W 005°41'0 0.0
2017-Nov-24 07:29N 43°33' W 005°41'0 0.0
2017-Nov-24 07:00N 43°33' W 005°41'0 0.7
2017-Nov-24 06:30N 43°34' W 005°41'3 5.9
2017-Nov-24 06:00N 43°37' W 005°40'612.6
2017-Nov-24 05:30N 43°41' W 005°46'714.2
2017-Nov-24 05:00N 43°44' W 005°55'714.3
2017-Nov-24 04:30N 43°45' W 006°05'714.7
2017-Nov-24 04:00N 43°46' W 006°15'814.6
2017-Nov-24 03:28N 43°46' W 006°26'2914.2
2017-Nov-24 01:28N 43°50' W 007°05'614.0
2017-Nov-24 01:00N 43°51' W 007°14'713.8
2017-Nov-24 00:30N 43°51' W 007°24'714.1
2017-Nov-24 00:00N 43°51' W 007°34'815.3
2017-Nov-23 23:30N 43°50' W 007°44'815.2
2017-Nov-23 23:00N 43°50' W 007°55'260 9.7
2017-Nov-22 20:07N 39°42' W 009°41'516.5
2017-Nov-22 19:49N 39°37' W 009°42'516.3
2017-Nov-22 19:31N 39°33' W 009°43'  
2017-Nov-19 20:01N 29°01' W 015°24'116.1
2017-Nov-19 19:57N 29°00' W 015°25'716.2
2017-Nov-19 19:30N 28°54' W 015°29'816.2
2017-Nov-19 19:00N 28°47' W 015°34'816.1
2017-Nov-19 18:30N 28°40' W 015°38'816.0
2017-Nov-19 18:00N 28°33' W 015°44'815.9
2017-Nov-19 17:30N 28°27' W 015°49'815.0
2017-Nov-19 17:00N 28°24' W 015°57'816.2
2017-Nov-19 16:30N 28°26' W 016°06'5 0.5
2017-Nov-19 06:18N 28°27' W 016°11'413.2
2017-Nov-19 05:59N 28°26' W 016°06'713.9
2017-Nov-19 05:30N 28°23' W 015°59'713.9
2017-Nov-19 05:00N 28°21' W 015°52'713.7
2017-Nov-19 04:30N 28°19' W 015°44'713.3
2017-Nov-19 04:00N 28°16' W 015°37'713.0
2017-Nov-19 03:30N 28°14' W 015°30'713.3
2017-Nov-19 03:00N 28°12' W 015°23'4 7.9
2017-Nov-19 02:30N 28°08' W 015°25'0 0.3
2017-Nov-19 01:58N 28°08' W 015°25'0 0.0
2017-Nov-19 01:25N 28°08' W 015°25'0 0.0
2017-Nov-19 00:52N 28°08' W 015°25'0 0.0
2017-Nov-19 00:19N 28°08' W 015°25'0 0.0
2017-Nov-18 23:58N 28°08' W 015°25'0 0.0
2017-Nov-18 23:27N 28°08' W 015°25'0 0.0
2017-Nov-18 22:54N 28°08' W 015°25'0 0.0
2017-Nov-18 22:21N 28°08' W 015°25'0 0.0
2017-Nov-18 22:00N 28°08' W 015°25'0 0.0
2017-Nov-18 21:30N 28°08' W 015°25'0 0.0
2017-Nov-18 20:56N 28°08' W 015°25'0 0.0
2017-Nov-18 20:23N 28°08' W 015°25'0 0.0
2017-Nov-18 19:50N 28°08' W 015°25'0 0.0
2017-Nov-18 19:29N 28°08' W 015°25'0 0.0
2017-Nov-18 18:58N 28°08' W 015°25'0 0.0
2017-Nov-18 18:25N 28°08' W 015°25'0 0.0
2017-Nov-18 17:52N 28°08' W 015°25'0 0.0
2017-Nov-18 17:19N 28°08' W 015°25'0 0.0
2017-Nov-18 16:58N 28°08' W 015°25'0 0.0
2017-Nov-18 16:27N 28°08' W 015°25'0 0.0
2017-Nov-18 15:54N 28°08' W 015°25'0 0.0
2017-Nov-18 15:21N 28°08' W 015°25'0 0.0
2017-Nov-18 15:00N 28°08' W 015°25'0 0.0
2017-Nov-18 14:30N 28°08' W 015°25'0 0.0
2017-Nov-18 13:56N 28°08' W 015°25'0 0.0
2017-Nov-18 13:23N 28°08' W 015°25'0 0.0
2017-Nov-18 12:50N 28°08' W 015°25'0 0.0
2017-Nov-18 12:29N 28°08' W 015°25'0 0.0
2017-Nov-18 11:58N 28°08' W 015°25'0 0.0
2017-Nov-18 11:25N 28°08' W 015°25'0 0.0
2017-Nov-18 10:52N 28°08' W 015°25'0 0.0
2017-Nov-18 10:19N 28°08' W 015°25'0 0.0
2017-Nov-18 09:58N 28°08' W 015°25'0 0.0
2017-Nov-18 09:24N 28°08' W 015°25'0 0.0
2017-Nov-18 08:54N 28°08' W 015°25'0 0.0
2017-Nov-18 08:30N 28°08' W 015°25'0 0.0
2017-Nov-18 08:00N 28°08' W 015°25'0 0.0
2017-Nov-18 07:29N 28°08' W 015°25'0 0.0
2017-Nov-18 06:56N 28°08' W 015°25'0 0.0
2017-Nov-18 06:23N 28°08' W 015°25'0 0.0
2017-Nov-18 05:59N 28°08' W 015°25'0 0.0
2017-Nov-18 05:29N 28°08' W 015°25'0 0.0
2017-Nov-18 04:58N 28°08' W 015°25'0 0.0
2017-Nov-18 04:25N 28°08' W 015°25'0 0.0
2017-Nov-18 03:49N 28°08' W 015°25'0 0.0
2017-Nov-18 03:28N 28°08' W 015°25'0 0.0
2017-Nov-18 03:01N 28°08' W 015°25'0 0.0
2017-Nov-18 02:27N 28°08' W 015°25'0 0.0
2017-Nov-18 01:54N 28°08' W 015°25'0 0.0
2017-Nov-18 01:30N 28°08' W 015°25'0 0.0
2017-Nov-18 01:00N 28°08' W 015°25'0 0.0
2017-Nov-18 00:29N 28°08' W 015°25'0 0.0
2017-Nov-17 23:56N 28°08' W 015°25'0 0.0
2017-Nov-17 23:20N 28°08' W 015°25'0 0.0
2017-Nov-17 22:59N 28°08' W 015°25'0 0.0
2017-Nov-17 22:29N 28°08' W 015°25'0 0.0
2017-Nov-17 21:58N 28°08' W 015°25'0 0.0
2017-Nov-17 21:25N 28°08' W 015°25'0 0.0
2017-Nov-17 20:52N 28°08' W 015°25'0 0.0
2017-Nov-17 20:28N 28°08' W 015°25'0 0.0
2017-Nov-17 20:00N 28°08' W 015°25'0 0.0
2017-Nov-17 19:27N 28°08' W 015°25'0 0.0
2017-Nov-17 18:54N 28°08' W 015°25'0 0.0
2017-Nov-17 18:30N 28°08' W 015°25'0 0.0
2017-Nov-17 18:00N 28°08' W 015°25'0 0.0
2017-Nov-17 17:29N 28°08' W 015°25'0 0.0
2017-Nov-17 16:56N 28°08' W 015°25'0 0.0
2017-Nov-17 16:23N 28°08' W 015°25'0 0.0
2017-Nov-17 15:59N 28°08' W 015°25'0 0.0
2017-Nov-17 15:29N 28°08' W 015°25'0 0.0
2017-Nov-17 14:55N 28°08' W 015°25'0 0.0
2017-Nov-17 14:25N 28°08' W 015°25'0 0.0
2017-Nov-17 13:49N 28°08' W 015°25'0 0.0
2017-Nov-17 13:28N 28°08' W 015°25'0 0.0
2017-Nov-17 13:01N 28°08' W 015°25'1 1.4
2017-Nov-17 12:30N 28°07' W 015°25'2 4.1
2017-Nov-17 12:00N 28°07' W 015°23'612.2
2017-Nov-17 11:30N 28°12' W 015°18'612.8
2017-Nov-17 11:00N 28°16' W 015°12'713.0
2017-Nov-17 10:30N 28°21' W 015°07'613.0
2017-Nov-17 10:00N 28°26' W 015°02'612.9
2017-Nov-17 09:30N 28°30' W 014°57'612.8
2017-Nov-17 09:00N 28°35' W 014°52'612.8
2017-Nov-17 08:30N 28°39' W 014°47'612.8
2017-Nov-17 08:00N 28°44' W 014°41'1112.5
2017-Nov-17 07:08N 28°51' W 014°32'211.8
2017-Nov-17 06:57N 28°52' W 014°31'511.1
2017-Nov-17 06:30N 28°56' W 014°26'511.0
2017-Nov-17 06:00N 28°60' W 014°22'711.0
2017-Nov-17 05:24N 29°05' W 014°17'611.0
2017-Nov-17 04:52N 29°09' W 014°12'411.0
2017-Nov-17 04:30N 29°12' W 014°09'610.9
2017-Nov-17 03:59N 29°16' W 014°05'710.8
2017-Nov-17 03:21N 29°21' W 013°59'710.8
2017-Nov-17 02:43N 29°25' W 013°53'810.9
2017-Nov-17 02:02N 29°31' W 013°47'010.9
2017-Nov-17 02:00N 29°31' W 013°47'  

Dump ship's entire track history